Baton Rouge, LA (70810)

3:34 PM CDT on September 17, 2014 (GMT -0500)
St. George Fire Station 61 | Change Station
CLOSE
Current Station
Personal Weather Station
Location: Baton Rouge, LA
Elevation: 56 ft
Nearby Weather Stations

Elev 56 ft 30.37 °N, 91.07 °W | Updated 28 seconds ago

Mostly Cloudy
Mostly Cloudy
87.4 °F
Feels Like 99 °F
N
0.0
Wind Variable Wind from South
Gusts 5.0 mph

Today
High -- | Low -- °F
--% Chance of Precip.
Yesterday
High -- | Low -- °F
Precip. -- in
6:49 AM 7:07 PM
Waning Crescent, 33% visible
Pressure 29.92 in
Visibility 10.0 miles
Clouds Scattered Clouds 2600 ft
Heat Index 99 °F
Dew Point 76 °F
Humidity 70%
Rainfall 0.05 in
Snow Depth Not available.
UV 6 out of 12
Pollen 9.40 out of 12
Ozone Good
PM2.5 Good
Flu Activity Not available.
SPECI KBTR 172004Z 06004KT 10SM SCT026 30/23 A2992

More Conditions Fewer Conditions

Pressure 29.92 in
Visibility 10.0 miles
Clouds Scattered Clouds 2600 ft
Heat Index 99 °F
Dew Point 76 °F
Humidity 70%
Rainfall 0.05 in
Snow Depth Not available.
UV 6 out of 12
Pollen 9.40 out of 12
Ozone Good
PM2.5 Good
Flu Activity Not available.
SPECI KBTR 172004Z 06004KT 10SM SCT026 30/23 A2992

More Conditions Fewer Conditions

10-Day Weather Forecast

Almanac

Astronomy

Sep. 17, 2014 Rise Set
Actual Time 6:49 AM CDT 7:07 PM CDT
Civil Twilight 6:25 AM CDT 7:31 PM CDT
Nautical Twilight 5:57 AM CDT 7:59 PM CDT
Astronomical Twilight 5:29 AM CDT 8:27 PM CDT
Moon 1:07 AM CDT 3:00 PM CDT
Length of Visible Light 13h 05m
Length of Day
12h 17m
Tomorrow will be 1m 49s shorter.
Waning Crescent, 33% of the Moon is Illuminated
Today
Waning Crescent
Sep 24
New
Oct 1
First Quarter
Oct 8
Full
Oct 15
Last Quarter

Today's Extremes

State Highs State Lows

Community

WunderPhotos

Upload Photos

1,754,157 photos uploaded!

WunderBlogs® & News

Nearby

Air Quality

  Air Quality AQ Index Pollutant
Yesterday Good
OZONE
Yesterday Good
PM2.5
Current Good
OZONE
Current Good
PM2.5
Wednesday Moderate
PM2.5
Wednesday Good
OZONE
Thursday Moderate
PM2.5
Thursday Good
OZONE
Friday Moderate
PM2.5
Friday Good
OZONE

Snow Depth

Station Depth Elevation
No new snow has been reported.

Earthquake Activity

City Distance Mag. Time & Date
No recent earthquake activity has been reported nearby.
Minimum magnitude displayed is 2.5.

Coastal Water Temperatures

Place Temperature
No Stations Reporting

Nearby Weather Stations